sensor_id;sensor_type;location;lat;lon;timestamp;temperature;humidity
54642;DHT22;40536;53.194;5.728;2023-06-10T00:00:13;16.90;99.90
54642;DHT22;40536;53.194;5.728;2023-06-10T00:02:41;16.90;99.90
54642;DHT22;40536;53.194;5.728;2023-06-10T00:05:07;16.90;99.90
54642;DHT22;40536;53.194;5.728;2023-06-10T00:07:36;16.90;99.90
54642;DHT22;40536;53.194;5.728;2023-06-10T00:10:06;16.90;99.90
54642;DHT22;40536;53.194;5.728;2023-06-10T00:12:32;16.90;99.90
54642;DHT22;40536;53.194;5.728;2023-06-10T00:15:06;17.00;99.90
54642;DHT22;40536;53.194;5.728;2023-06-10T00:17:32;16.90;99.90
54642;DHT22;40536;53.194;5.728;2023-06-10T00:19:58;16.90;99.90
54642;DHT22;40536;53.194;5.728;2023-06-10T00:22:24;16.90;99.90
54642;DHT22;40536;53.194;5.728;2023-06-10T00:24:55;16.90;99.90
54642;DHT22;40536;53.194;5.728;2023-06-10T00:27:22;16.90;99.90
54642;DHT22;40536;53.194;5.728;2023-06-10T00:29:47;16.90;99.90
54642;DHT22;40536;53.194;5.728;2023-06-10T00:32:13;16.90;99.90
54642;DHT22;40536;53.194;5.728;2023-06-10T00:34:39;16.90;99.90
54642;DHT22;40536;53.194;5.728;2023-06-10T00:37:05;16.90;99.90
54642;DHT22;40536;53.194;5.728;2023-06-10T00:39:30;16.90;99.90
54642;DHT22;40536;53.194;5.728;2023-06-10T00:41:56;16.90;99.90
54642;DHT22;40536;53.194;5.728;2023-06-10T00:44:22;16.90;99.90
54642;DHT22;40536;53.194;5.728;2023-06-10T00:46:47;16.80;99.90
54642;DHT22;40536;53.194;5.728;2023-06-10T00:49:16;16.80;99.90
54642;DHT22;40536;53.194;5.728;2023-06-10T00:51:42;16.80;99.90
54642;DHT22;40536;53.194;5.728;2023-06-10T00:54:08;16.70;99.90
54642;DHT22;40536;53.194;5.728;2023-06-10T00:56:35;16.80;99.90
54642;DHT22;40536;53.194;5.728;2023-06-10T00:59:01;16.70;99.90
54642;DHT22;40536;53.194;5.728;2023-06-10T01:01:28;16.70;99.90
54642;DHT22;40536;53.194;5.728;2023-06-10T01:03:54;16.70;99.90
54642;DHT22;40536;53.194;5.728;2023-06-10T01:09:32;16.70;99.90
54642;DHT22;40536;53.194;5.728;2023-06-10T01:12:12;16.70;99.90
54642;DHT22;40536;53.194;5.728;2023-06-10T01:14:40;16.60;99.90
54642;DHT22;40536;53.194;5.728;2023-06-10T01:17:11;16.60;99.90
54642;DHT22;40536;53.194;5.728;2023-06-10T01:19:37;16.60;99.90
54642;DHT22;40536;53.194;5.728;2023-06-10T01:22:03;16.60;99.90
54642;DHT22;40536;53.194;5.728;2023-06-10T01:24:29;16.60;99.90
54642;DHT22;40536;53.194;5.728;2023-06-10T01:27:00;16.50;99.90
54642;DHT22;40536;53.194;5.728;2023-06-10T01:29:33;16.50;99.90
54642;DHT22;40536;53.194;5.728;2023-06-10T01:32:12;16.50;99.90
54642;DHT22;40536;53.194;5.728;2023-06-10T01:34:42;16.50;99.90
54642;DHT22;40536;53.194;5.728;2023-06-10T01:37:12;16.40;99.90
54642;DHT22;40536;53.194;5.728;2023-06-10T01:39:39;16.40;99.90
54642;DHT22;40536;53.194;5.728;2023-06-10T01:42:05;16.40;99.90
54642;DHT22;40536;53.194;5.728;2023-06-10T01:44:32;16.40;99.90
54642;DHT22;40536;53.194;5.728;2023-06-10T01:46:57;16.40;99.90
54642;DHT22;40536;53.194;5.728;2023-06-10T01:49:23;16.30;99.90
54642;DHT22;40536;53.194;5.728;2023-06-10T01:51:49;16.30;99.90
54642;DHT22;40536;53.194;5.728;2023-06-10T01:54:15;16.30;99.90
54642;DHT22;40536;53.194;5.728;2023-06-10T01:56:43;16.30;99.90
54642;DHT22;40536;53.194;5.728;2023-06-10T01:59:09;16.20;99.90
54642;DHT22;40536;53.194;5.728;2023-06-10T02:01:35;16.20;99.90
54642;DHT22;40536;53.194;5.728;2023-06-10T02:04:00;16.20;99.90
54642;DHT22;40536;53.194;5.728;2023-06-10T02:06:26;16.20;99.90
54642;DHT22;40536;53.194;5.728;2023-06-10T02:08:51;16.20;99.90
54642;DHT22;40536;53.194;5.728;2023-06-10T02:11:17;16.20;99.90
54642;DHT22;40536;53.194;5.728;2023-06-10T02:13:43;16.20;99.90
54642;DHT22;40536;53.194;5.728;2023-06-10T02:16:08;16.10;99.90
54642;DHT22;40536;53.194;5.728;2023-06-10T02:18:38;16.20;99.90
54642;DHT22;40536;53.194;5.728;2023-06-10T02:21:06;16.10;99.90
54642;DHT22;40536;53.194;5.728;2023-06-10T02:23:32;16.10;99.90
54642;DHT22;40536;53.194;5.728;2023-06-10T02:25:58;16.00;99.90
54642;DHT22;40536;53.194;5.728;2023-06-10T02:28:24;15.90;99.90
54642;DHT22;40536;53.194;5.728;2023-06-10T02:30:51;15.90;99.90
54642;DHT22;40536;53.194;5.728;2023-06-10T02:33:17;15.80;99.90
54642;DHT22;40536;53.194;5.728;2023-06-10T02:35:43;15.70;99.90
54642;DHT22;40536;53.194;5.728;2023-06-10T02:38:08;15.60;99.90
54642;DHT22;40536;53.194;5.728;2023-06-10T02:40:34;15.50;99.90
54642;DHT22;40536;53.194;5.728;2023-06-10T02:43:00;15.50;99.90
54642;DHT22;40536;53.194;5.728;2023-06-10T02:45:25;15.40;99.90
54642;DHT22;40536;53.194;5.728;2023-06-10T02:47:51;15.40;99.90
54642;DHT22;40536;53.194;5.728;2023-06-10T02:50:17;15.40;99.90
54642;DHT22;40536;53.194;5.728;2023-06-10T02:52:43;15.30;99.90
54642;DHT22;40536;53.194;5.728;2023-06-10T02:55:09;15.20;99.90
54642;DHT22;40536;53.194;5.728;2023-06-10T02:57:35;15.20;99.90
54642;DHT22;40536;53.194;5.728;2023-06-10T03:00:00;15.20;99.90
54642;DHT22;40536;53.194;5.728;2023-06-10T03:02:26;15.20;99.90
54642;DHT22;40536;53.194;5.728;2023-06-10T03:04:57;15.10;99.90
54642;DHT22;40536;53.194;5.728;2023-06-10T03:07:23;15.10;99.90
54642;DHT22;40536;53.194;5.728;2023-06-10T03:09:49;15.00;99.90
54642;DHT22;40536;53.194;5.728;2023-06-10T03:12:15;15.00;99.90
54642;DHT22;40536;53.194;5.728;2023-06-10T03:14:41;14.90;99.90
54642;DHT22;40536;53.194;5.728;2023-06-10T03:17:07;14.90;99.90
54642;DHT22;40536;53.194;5.728;2023-06-10T03:19:34;14.90;99.90
54642;DHT22;40536;53.194;5.728;2023-06-10T03:22:16;14.80;99.90
54642;DHT22;40536;53.194;5.728;2023-06-10T03:24:42;14.80;99.90
54642;DHT22;40536;53.194;5.728;2023-06-10T03:27:12;14.80;99.90
54642;DHT22;40536;53.194;5.728;2023-06-10T03:29:38;14.70;99.90
54642;DHT22;40536;53.194;5.728;2023-06-10T03:32:05;14.70;99.90
54642;DHT22;40536;53.194;5.728;2023-06-10T03:34:31;14.70;99.90
54642;DHT22;40536;53.194;5.728;2023-06-10T03:36:57;14.70;99.90
54642;DHT22;40536;53.194;5.728;2023-06-10T03:39:23;14.80;99.90
54642;DHT22;40536;53.194;5.728;2023-06-10T03:41:49;14.80;99.90
54642;DHT22;40536;53.194;5.728;2023-06-10T03:44:15;14.90;99.90
54642;DHT22;40536;53.194;5.728;2023-06-10T03:46:41;14.90;99.90
54642;DHT22;40536;53.194;5.728;2023-06-10T03:49:07;14.90;99.90
54642;DHT22;40536;53.194;5.728;2023-06-10T03:51:32;14.90;99.90
54642;DHT22;40536;53.194;5.728;2023-06-10T03:53:58;14.90;99.90
54642;DHT22;40536;53.194;5.728;2023-06-10T03:56:23;14.90;99.90
54642;DHT22;40536;53.194;5.728;2023-06-10T03:58:49;14.90;99.90
54642;DHT22;40536;53.194;5.728;2023-06-10T04:01:15;15.00;99.90
54642;DHT22;40536;53.194;5.728;2023-06-10T04:03:43;15.00;99.90
54642;DHT22;40536;53.194;5.728;2023-06-10T04:06:09;15.00;99.90
54642;DHT22;40536;53.194;5.728;2023-06-10T04:08:35;15.10;99.90
54642;DHT22;40536;53.194;5.728;2023-06-10T04:11:01;15.00;99.90
54642;DHT22;40536;53.194;5.728;2023-06-10T04:13:27;15.10;99.90
54642;DHT22;40536;53.194;5.728;2023-06-10T04:15:53;15.10;99.90
54642;DHT22;40536;53.194;5.728;2023-06-10T04:18:20;15.10;99.90
54642;DHT22;40536;53.194;5.728;2023-06-10T04:20:47;15.10;99.90
54642;DHT22;40536;53.194;5.728;2023-06-10T04:23:12;15.10;99.90
54642;DHT22;40536;53.194;5.728;2023-06-10T04:25:38;15.10;99.90
54642;DHT22;40536;53.194;5.728;2023-06-10T04:28:04;15.30;99.90
54642;DHT22;40536;53.194;5.728;2023-06-10T04:30:29;15.40;99.90
54642;DHT22;40536;53.194;5.728;2023-06-10T04:32:57;15.60;99.90
54642;DHT22;40536;53.194;5.728;2023-06-10T04:35:22;15.70;99.90
54642;DHT22;40536;53.194;5.728;2023-06-10T04:37:48;15.80;99.90
54642;DHT22;40536;53.194;5.728;2023-06-10T04:40:14;16.00;99.90
54642;DHT22;40536;53.194;5.728;2023-06-10T04:42:41;16.10;99.90
54642;DHT22;40536;53.194;5.728;2023-06-10T04:45:07;16.30;99.90
54642;DHT22;40536;53.194;5.728;2023-06-10T04:47:33;16.40;99.90
54642;DHT22;40536;53.194;5.728;2023-06-10T04:50:00;16.60;99.90
54642;DHT22;40536;53.194;5.728;2023-06-10T04:52:26;16.70;99.90
54642;DHT22;40536;53.194;5.728;2023-06-10T04:54:52;16.90;99.90
54642;DHT22;40536;53.194;5.728;2023-06-10T04:57:18;17.10;99.90
54642;DHT22;40536;53.194;5.728;2023-06-10T04:59:45;17.30;99.90
54642;DHT22;40536;53.194;5.728;2023-06-10T05:02:11;17.40;99.90
54642;DHT22;40536;53.194;5.728;2023-06-10T05:04:37;17.50;99.90
54642;DHT22;40536;53.194;5.728;2023-06-10T05:07:03;17.70;99.90
54642;DHT22;40536;53.194;5.728;2023-06-10T05:09:29;17.90;99.90
54642;DHT22;40536;53.194;5.728;2023-06-10T05:11:55;18.00;99.90
54642;DHT22;40536;53.194;5.728;2023-06-10T05:14:21;18.20;99.90
54642;DHT22;40536;53.194;5.728;2023-06-10T05:16:48;18.40;99.90
54642;DHT22;40536;53.194;5.728;2023-06-10T05:19:13;18.60;99.90
54642;DHT22;40536;53.194;5.728;2023-06-10T05:21:41;18.80;99.90
54642;DHT22;40536;53.194;5.728;2023-06-10T05:24:07;19.10;99.90
54642;DHT22;40536;53.194;5.728;2023-06-10T05:26:33;19.10;99.90
54642;DHT22;40536;53.194;5.728;2023-06-10T05:29:03;19.20;99.90
54642;DHT22;40536;53.194;5.728;2023-06-10T05:31:28;19.30;99.90
54642;DHT22;40536;53.194;5.728;2023-06-10T05:33:54;19.50;99.90
54642;DHT22;40536;53.194;5.728;2023-06-10T05:36:20;19.50;99.90
54642;DHT22;40536;53.194;5.728;2023-06-10T05:38:46;19.50;99.90
54642;DHT22;40536;53.194;5.728;2023-06-10T05:41:11;19.60;99.90
54642;DHT22;40536;53.194;5.728;2023-06-10T05:43:37;19.60;99.90
54642;DHT22;40536;53.194;5.728;2023-06-10T05:46:03;19.70;99.90
54642;DHT22;40536;53.194;5.728;2023-06-10T05:48:29;20.00;99.90
54642;DHT22;40536;53.194;5.728;2023-06-10T05:50:54;20.20;99.90
54642;DHT22;40536;53.194;5.728;2023-06-10T05:53:20;20.40;99.90
54642;DHT22;40536;53.194;5.728;2023-06-10T05:55:46;20.50;99.90
54642;DHT22;40536;53.194;5.728;2023-06-10T05:58:13;20.60;99.90
54642;DHT22;40536;53.194;5.728;2023-06-10T06:00:39;20.80;99.90
54642;DHT22;40536;53.194;5.728;2023-06-10T06:03:09;20.90;99.90
54642;DHT22;40536;53.194;5.728;2023-06-10T06:05:36;21.00;99.90
54642;DHT22;40536;53.194;5.728;2023-06-10T06:08:04;21.20;99.90
54642;DHT22;40536;53.194;5.728;2023-06-10T06:10:30;21.30;99.90
54642;DHT22;40536;53.194;5.728;2023-06-10T06:12:56;21.60;99.90
54642;DHT22;40536;53.194;5.728;2023-06-10T06:15:21;21.80;99.90
54642;DHT22;40536;53.194;5.728;2023-06-10T06:17:47;21.90;99.90
54642;DHT22;40536;53.194;5.728;2023-06-10T06:20:13;22.00;99.90
54642;DHT22;40536;53.194;5.728;2023-06-10T06:22:38;22.10;99.90
54642;DHT22;40536;53.194;5.728;2023-06-10T06:25:04;22.30;99.90
54642;DHT22;40536;53.194;5.728;2023-06-10T06:27:31;22.50;99.90
54642;DHT22;40536;53.194;5.728;2023-06-10T06:29:57;22.80;99.90
54642;DHT22;40536;53.194;5.728;2023-06-10T06:32:22;23.10;99.90
54642;DHT22;40536;53.194;5.728;2023-06-10T06:34:50;23.40;99.90
54642;DHT22;40536;53.194;5.728;2023-06-10T06:37:21;23.70;99.90
54642;DHT22;40536;53.194;5.728;2023-06-10T06:39:48;23.70;99.90
54642;DHT22;40536;53.194;5.728;2023-06-10T06:42:14;23.80;99.90
54642;DHT22;40536;53.194;5.728;2023-06-10T06:44:39;23.90;99.90
54642;DHT22;40536;53.194;5.728;2023-06-10T06:47:05;24.10;99.90
54642;DHT22;40536;53.194;5.728;2023-06-10T06:49:31;24.40;99.90
54642;DHT22;40536;53.194;5.728;2023-06-10T06:51:57;24.40;99.90
54642;DHT22;40536;53.194;5.728;2023-06-10T06:54:22;24.50;99.90
54642;DHT22;40536;53.194;5.728;2023-06-10T06:56:48;24.70;99.90
54642;DHT22;40536;53.194;5.728;2023-06-10T06:59:13;25.10;99.90
54642;DHT22;40536;53.194;5.728;2023-06-10T07:01:39;25.40;99.90
54642;DHT22;40536;53.194;5.728;2023-06-10T07:04:05;25.70;99.90
54642;DHT22;40536;53.194;5.728;2023-06-10T07:06:30;26.00;99.90
54642;DHT22;40536;53.194;5.728;2023-06-10T07:08:57;26.20;99.90
54642;DHT22;40536;53.194;5.728;2023-06-10T07:11:23;26.40;99.90
54642;DHT22;40536;53.194;5.728;2023-06-10T07:13:48;26.80;99.90
54642;DHT22;40536;53.194;5.728;2023-06-10T07:16:14;27.00;99.90
54642;DHT22;40536;53.194;5.728;2023-06-10T07:18:40;27.20;99.90
54642;DHT22;40536;53.194;5.728;2023-06-10T07:21:06;27.60;99.90
54642;DHT22;40536;53.194;5.728;2023-06-10T07:23:31;27.80;99.90
54642;DHT22;40536;53.194;5.728;2023-06-10T07:25:57;28.20;99.90
54642;DHT22;40536;53.194;5.728;2023-06-10T07:28:23;28.30;99.90
54642;DHT22;40536;53.194;5.728;2023-06-10T07:30:49;28.50;99.90
54642;DHT22;40536;53.194;5.728;2023-06-10T07:33:15;28.40;99.40
54642;DHT22;40536;53.194;5.728;2023-06-10T07:35:40;28.50;99.90
54642;DHT22;40536;53.194;5.728;2023-06-10T07:38:08;28.60;99.50
54642;DHT22;40536;53.194;5.728;2023-06-10T07:40:34;28.50;98.90
54642;DHT22;40536;53.194;5.728;2023-06-10T07:43:00;28.70;99.20
54642;DHT22;40536;53.194;5.728;2023-06-10T07:45:25;28.90;99.50
54642;DHT22;40536;53.194;5.728;2023-06-10T07:47:51;28.80;99.10
54642;DHT22;40536;53.194;5.728;2023-06-10T07:50:17;28.90;99.20
54642;DHT22;40536;53.194;5.728;2023-06-10T07:52:43;29.30;99.40
54642;DHT22;40536;53.194;5.728;2023-06-10T07:55:09;29.70;99.00
54642;DHT22;40536;53.194;5.728;2023-06-10T07:57:34;29.90;98.60
54642;DHT22;40536;53.194;5.728;2023-06-10T08:00:03;30.10;98.40
54642;DHT22;40536;53.194;5.728;2023-06-10T08:02:30;30.00;98.00
54642;DHT22;40536;53.194;5.728;2023-06-10T08:04:55;29.90;97.90
54642;DHT22;40536;53.194;5.728;2023-06-10T08:07:21;29.80;98.00
54642;DHT22;40536;53.194;5.728;2023-06-10T08:09:47;29.90;98.10
54642;DHT22;40536;53.194;5.728;2023-06-10T08:12:13;29.80;98.20
54642;DHT22;40536;53.194;5.728;2023-06-10T08:14:39;30.30;98.50
54642;DHT22;40536;53.194;5.728;2023-06-10T08:17:05;30.50;97.80
54642;DHT22;40536;53.194;5.728;2023-06-10T08:19:32;30.70;96.90
54642;DHT22;40536;53.194;5.728;2023-06-10T08:21:57;30.70;97.10
54642;DHT22;40536;53.194;5.728;2023-06-10T08:24:23;30.90;97.10
54642;DHT22;40536;53.194;5.728;2023-06-10T08:26:48;31.00;97.10
54642;DHT22;40536;53.194;5.728;2023-06-10T08:29:14;31.00;96.90
54642;DHT22;40536;53.194;5.728;2023-06-10T08:31:43;31.30;96.40
54642;DHT22;40536;53.194;5.728;2023-06-10T08:34:09;31.20;96.20
54642;DHT22;40536;53.194;5.728;2023-06-10T08:36:35;31.20;96.30
54642;DHT22;40536;53.194;5.728;2023-06-10T08:39:01;31.20;95.00
54642;DHT22;40536;53.194;5.728;2023-06-10T08:41:28;31.30;94.90
54642;DHT22;40536;53.194;5.728;2023-06-10T08:44:08;31.30;94.80
54642;DHT22;40536;53.194;5.728;2023-06-10T08:46:36;31.40;94.60
54642;DHT22;40536;53.194;5.728;2023-06-10T08:49:05;31.30;95.30
54642;DHT22;40536;53.194;5.728;2023-06-10T08:51:32;31.40;94.60
54642;DHT22;40536;53.194;5.728;2023-06-10T08:54:15;31.50;95.00
54642;DHT22;40536;53.194;5.728;2023-06-10T08:56:45;31.60;94.60
54642;DHT22;40536;53.194;5.728;2023-06-10T08:59:14;31.60;94.50
54642;DHT22;40536;53.194;5.728;2023-06-10T09:01:45;31.20;94.20
54642;DHT22;40536;53.194;5.728;2023-06-10T09:04:11;31.60;94.10
54642;DHT22;40536;53.194;5.728;2023-06-10T09:06:37;31.80;93.10
54642;DHT22;40536;53.194;5.728;2023-06-10T09:09:06;31.60;93.00
54642;DHT22;40536;53.194;5.728;2023-06-10T09:11:33;31.90;93.00
54642;DHT22;40536;53.194;5.728;2023-06-10T09:13:59;32.00;93.20
54642;DHT22;40536;53.194;5.728;2023-06-10T09:16:26;32.20;93.70
54642;DHT22;40536;53.194;5.728;2023-06-10T09:18:52;32.20;93.10
54642;DHT22;40536;53.194;5.728;2023-06-10T09:21:24;32.60;93.40
54642;DHT22;40536;53.194;5.728;2023-06-10T09:23:51;32.70;92.90
54642;DHT22;40536;53.194;5.728;2023-06-10T09:26:17;32.90;92.70
54642;DHT22;40536;53.194;5.728;2023-06-10T09:28:44;32.90;92.90
54642;DHT22;40536;53.194;5.728;2023-06-10T09:31:13;32.50;91.80
54642;DHT22;40536;53.194;5.728;2023-06-10T09:33:40;32.30;91.90
54642;DHT22;40536;53.194;5.728;2023-06-10T09:36:06;32.70;91.40
54642;DHT22;40536;53.194;5.728;2023-06-10T09:38:34;32.70;92.10
54642;DHT22;40536;53.194;5.728;2023-06-10T09:41:01;33.00;92.10
54642;DHT22;40536;53.194;5.728;2023-06-10T09:43:42;33.30;91.90
54642;DHT22;40536;53.194;5.728;2023-06-10T09:46:19;33.30;91.80
54642;DHT22;40536;53.194;5.728;2023-06-10T09:48:46;33.40;90.40
54642;DHT22;40536;53.194;5.728;2023-06-10T09:51:15;33.60;91.20
54642;DHT22;40536;53.194;5.728;2023-06-10T09:53:48;33.80;90.30
54642;DHT22;40536;53.194;5.728;2023-06-10T09:56:15;33.70;89.40
54642;DHT22;40536;53.194;5.728;2023-06-10T09:58:40;33.90;90.70
54642;DHT22;40536;53.194;5.728;2023-06-10T10:01:10;34.60;91.30
54642;DHT22;40536;53.194;5.728;2023-06-10T10:06:12;35.30;90.60
54642;DHT22;40536;53.194;5.728;2023-06-10T10:08:38;35.40;91.20
54642;DHT22;40536;53.194;5.728;2023-06-10T10:11:03;35.60;90.80
54642;DHT22;40536;53.194;5.728;2023-06-10T10:13:35;35.20;90.60
54642;DHT22;40536;53.194;5.728;2023-06-10T10:16:10;35.20;90.40
54642;DHT22;40536;53.194;5.728;2023-06-10T10:18:43;34.70;90.00
54642;DHT22;40536;53.194;5.728;2023-06-10T10:21:12;34.50;89.90
54642;DHT22;40536;53.194;5.728;2023-06-10T10:26:33;34.70;90.50
54642;DHT22;40536;53.194;5.728;2023-06-10T10:29:10;35.00;90.00
54642;DHT22;40536;53.194;5.728;2023-06-10T10:31:36;34.90;90.50
54642;DHT22;40536;53.194;5.728;2023-06-10T10:34:07;34.50;91.00
54642;DHT22;40536;53.194;5.728;2023-06-10T10:36:34;34.70;90.90
54642;DHT22;40536;53.194;5.728;2023-06-10T10:39:02;34.80;90.40
54642;DHT22;40536;53.194;5.728;2023-06-10T10:41:30;34.50;90.00
54642;DHT22;40536;53.194;5.728;2023-06-10T10:43:56;34.50;90.00
54642;DHT22;40536;53.194;5.728;2023-06-10T10:46:22;34.50;89.90
54642;DHT22;40536;53.194;5.728;2023-06-10T10:48:53;34.40;90.10
54642;DHT22;40536;53.194;5.728;2023-06-10T10:51:20;34.40;90.10
54642;DHT22;40536;53.194;5.728;2023-06-10T10:54:09;34.50;90.00
54642;DHT22;40536;53.194;5.728;2023-06-10T10:56:35;34.30;90.60
54642;DHT22;40536;53.194;5.728;2023-06-10T10:59:04;34.30;90.90
54642;DHT22;40536;53.194;5.728;2023-06-10T11:01:41;34.10;90.40
54642;DHT22;40536;53.194;5.728;2023-06-10T11:04:08;34.40;90.90
54642;DHT22;40536;53.194;5.728;2023-06-10T11:06:37;34.50;90.70
54642;DHT22;40536;53.194;5.728;2023-06-10T11:09:25;34.60;90.30
54642;DHT22;40536;53.194;5.728;2023-06-10T11:11:50;34.90;90.50
54642;DHT22;40536;53.194;5.728;2023-06-10T11:14:27;34.60;90.10
54642;DHT22;40536;53.194;5.728;2023-06-10T11:16:58;34.10;90.30
54642;DHT22;40536;53.194;5.728;2023-06-10T11:19:37;34.20;90.40
54642;DHT22;40536;53.194;5.728;2023-06-10T11:22:07;34.40;90.20
54642;DHT22;40536;53.194;5.728;2023-06-10T11:24:33;34.20;90.10
54642;DHT22;40536;53.194;5.728;2023-06-10T11:27:18;34.10;90.20
54642;DHT22;40536;53.194;5.728;2023-06-10T11:32:34;34.40;90.00
54642;DHT22;40536;53.194;5.728;2023-06-10T11:35:03;34.60;89.90
54642;DHT22;40536;53.194;5.728;2023-06-10T11:37:29;34.80;90.00
54642;DHT22;40536;53.194;5.728;2023-06-10T11:39:55;34.80;89.90
54642;DHT22;40536;53.194;5.728;2023-06-10T11:42:22;34.60;89.40
54642;DHT22;40536;53.194;5.728;2023-06-10T11:44:52;34.60;88.40
54642;DHT22;40536;53.194;5.728;2023-06-10T11:47:18;34.90;88.80
54642;DHT22;40536;53.194;5.728;2023-06-10T11:49:44;35.20;88.20
54642;DHT22;40536;53.194;5.728;2023-06-10T11:52:11;34.90;87.40
54642;DHT22;40536;53.194;5.728;2023-06-10T11:54:37;35.00;88.00
54642;DHT22;40536;53.194;5.728;2023-06-10T11:57:03;35.20;88.50
54642;DHT22;40536;53.194;5.728;2023-06-10T11:59:30;35.40;88.60
54642;DHT22;40536;53.194;5.728;2023-06-10T12:01:55;35.30;89.60
54642;DHT22;40536;53.194;5.728;2023-06-10T12:04:21;34.80;91.70
54642;DHT22;40536;53.194;5.728;2023-06-10T12:06:51;34.40;92.10
54642;DHT22;40536;53.194;5.728;2023-06-10T12:09:21;34.30;92.70
54642;DHT22;40536;53.194;5.728;2023-06-10T12:12:00;33.90;93.30
54642;DHT22;40536;53.194;5.728;2023-06-10T12:14:55;33.80;93.70
54642;DHT22;40536;53.194;5.728;2023-06-10T12:17:36;33.30;94.00
54642;DHT22;40536;53.194;5.728;2023-06-10T12:20:08;33.20;94.50
54642;DHT22;40536;53.194;5.728;2023-06-10T12:22:45;33.00;94.70
54642;DHT22;40536;53.194;5.728;2023-06-10T12:25:11;32.90;94.90
54642;DHT22;40536;53.194;5.728;2023-06-10T12:27:38;32.50;95.10
54642;DHT22;40536;53.194;5.728;2023-06-10T12:30:05;32.00;95.30
54642;DHT22;40536;53.194;5.728;2023-06-10T12:32:45;31.90;96.30
54642;DHT22;40536;53.194;5.728;2023-06-10T12:35:14;31.70;96.20
54642;DHT22;40536;53.194;5.728;2023-06-10T12:37:40;31.50;96.50
54642;DHT22;40536;53.194;5.728;2023-06-10T12:40:07;31.40;96.20
54642;DHT22;40536;53.194;5.728;2023-06-10T12:42:35;31.40;96.30
54642;DHT22;40536;53.194;5.728;2023-06-10T12:45:01;31.30;96.50
54642;DHT22;40536;53.194;5.728;2023-06-10T12:47:32;31.10;96.70
54642;DHT22;40536;53.194;5.728;2023-06-10T12:50:00;31.10;96.40
54642;DHT22;40536;53.194;5.728;2023-06-10T12:52:26;30.80;97.80
54642;DHT22;40536;53.194;5.728;2023-06-10T12:54:53;30.60;97.40
54642;DHT22;40536;53.194;5.728;2023-06-10T12:57:20;30.50;97.80
54642;DHT22;40536;53.194;5.728;2023-06-10T12:59:45;30.50;98.10
54642;DHT22;40536;53.194;5.728;2023-06-10T13:02:16;30.50;98.00
54642;DHT22;40536;53.194;5.728;2023-06-10T13:04:44;30.40;98.20
54642;DHT22;40536;53.194;5.728;2023-06-10T13:07:10;30.40;98.40
54642;DHT22;40536;53.194;5.728;2023-06-10T13:09:36;30.20;98.20
54642;DHT22;40536;53.194;5.728;2023-06-10T13:12:05;30.00;98.50
54642;DHT22;40536;53.194;5.728;2023-06-10T13:14:31;29.90;98.80
54642;DHT22;40536;53.194;5.728;2023-06-10T13:16:57;29.80;98.90
54642;DHT22;40536;53.194;5.728;2023-06-10T13:19:22;29.80;99.10
54642;DHT22;40536;53.194;5.728;2023-06-10T13:21:48;29.70;98.90
54642;DHT22;40536;53.194;5.728;2023-06-10T13:24:14;29.40;99.10
54642;DHT22;40536;53.194;5.728;2023-06-10T13:26:40;29.10;99.50
54642;DHT22;40536;53.194;5.728;2023-06-10T13:29:05;28.90;99.80
54642;DHT22;40536;53.194;5.728;2023-06-10T13:31:33;29.00;99.70
54642;DHT22;40536;53.194;5.728;2023-06-10T13:33:59;29.00;99.90
54642;DHT22;40536;53.194;5.728;2023-06-10T13:36:25;28.90;99.70
54642;DHT22;40536;53.194;5.728;2023-06-10T13:38:50;28.90;99.90
54642;DHT22;40536;53.194;5.728;2023-06-10T13:41:16;28.70;99.90
54642;DHT22;40536;53.194;5.728;2023-06-10T13:43:42;28.90;99.90
54642;DHT22;40536;53.194;5.728;2023-06-10T13:46:07;28.80;99.70
54642;DHT22;40536;53.194;5.728;2023-06-10T13:48:33;28.80;99.90
54642;DHT22;40536;53.194;5.728;2023-06-10T13:50:59;28.70;99.90
54642;DHT22;40536;53.194;5.728;2023-06-10T13:53:25;28.50;99.90
54642;DHT22;40536;53.194;5.728;2023-06-10T13:55:51;28.50;99.90
54642;DHT22;40536;53.194;5.728;2023-06-10T13:58:16;28.40;99.90
54642;DHT22;40536;53.194;5.728;2023-06-10T14:00:42;28.30;99.90
54642;DHT22;40536;53.194;5.728;2023-06-10T14:03:08;28.30;99.90
54642;DHT22;40536;53.194;5.728;2023-06-10T14:05:33;28.20;99.90
54642;DHT22;40536;53.194;5.728;2023-06-10T14:07:59;28.30;99.90
54642;DHT22;40536;53.194;5.728;2023-06-10T14:10:25;28.40;99.90
54642;DHT22;40536;53.194;5.728;2023-06-10T14:12:51;28.30;99.90
54642;DHT22;40536;53.194;5.728;2023-06-10T14:15:17;28.20;99.90
54642;DHT22;40536;53.194;5.728;2023-06-10T14:17:42;28.20;99.90
54642;DHT22;40536;53.194;5.728;2023-06-10T14:20:08;28.20;99.90
54642;DHT22;40536;53.194;5.728;2023-06-10T14:22:34;28.30;99.90
54642;DHT22;40536;53.194;5.728;2023-06-10T14:24:59;28.20;99.90
54642;DHT22;40536;53.194;5.728;2023-06-10T14:27:25;28.20;99.90
54642;DHT22;40536;53.194;5.728;2023-06-10T14:29:51;28.10;99.90
54642;DHT22;40536;53.194;5.728;2023-06-10T14:32:16;28.10;99.90
54642;DHT22;40536;53.194;5.728;2023-06-10T14:34:42;28.00;99.90
54642;DHT22;40536;53.194;5.728;2023-06-10T14:37:10;27.90;99.90
54642;DHT22;40536;53.194;5.728;2023-06-10T14:39:35;28.10;99.90
54642;DHT22;40536;53.194;5.728;2023-06-10T14:42:02;28.00;99.90
54642;DHT22;40536;53.194;5.728;2023-06-10T14:44:27;27.90;99.90
54642;DHT22;40536;53.194;5.728;2023-06-10T14:46:53;27.80;99.90
54642;DHT22;40536;53.194;5.728;2023-06-10T14:49:19;27.80;99.90
54642;DHT22;40536;53.194;5.728;2023-06-10T14:51:44;27.80;99.90
54642;DHT22;40536;53.194;5.728;2023-06-10T14:54:10;27.80;99.90
54642;DHT22;40536;53.194;5.728;2023-06-10T14:56:36;27.80;99.90
54642;DHT22;40536;53.194;5.728;2023-06-10T14:59:02;27.90;99.90
54642;DHT22;40536;53.194;5.728;2023-06-10T15:01:27;27.80;99.90
54642;DHT22;40536;53.194;5.728;2023-06-10T15:03:53;27.70;99.90
54642;DHT22;40536;53.194;5.728;2023-06-10T15:06:18;27.70;99.90
54642;DHT22;40536;53.194;5.728;2023-06-10T15:08:47;27.50;99.90
54642;DHT22;40536;53.194;5.728;2023-06-10T15:11:16;27.40;99.90
54642;DHT22;40536;53.194;5.728;2023-06-10T15:13:42;27.50;99.90
54642;DHT22;40536;53.194;5.728;2023-06-10T15:16:07;27.50;99.90
54642;DHT22;40536;53.194;5.728;2023-06-10T15:18:33;27.40;99.90
54642;DHT22;40536;53.194;5.728;2023-06-10T15:20:59;27.50;99.90
54642;DHT22;40536;53.194;5.728;2023-06-10T15:23:24;27.60;99.90
54642;DHT22;40536;53.194;5.728;2023-06-10T15:25:50;27.60;99.90
54642;DHT22;40536;53.194;5.728;2023-06-10T15:28:16;27.50;99.90
54642;DHT22;40536;53.194;5.728;2023-06-10T15:30:43;27.50;99.90
54642;DHT22;40536;53.194;5.728;2023-06-10T15:33:09;27.60;99.90
54642;DHT22;40536;53.194;5.728;2023-06-10T15:35:35;27.60;99.90
54642;DHT22;40536;53.194;5.728;2023-06-10T15:38:00;27.40;99.90
54642;DHT22;40536;53.194;5.728;2023-06-10T15:40:26;27.40;99.90